Wetterdaten: Mittwoch, 08.09.2010
Datum Zeit Temp. A. Feuchte A. Luftdruck Regen Wind Richtung Richtung Sonnenschein UV Solar Windben
08.09.2010 00:00 14,8 C 72 % 1005,4 hPa 0,0 mm 4,8 km/h (1 Bft) O-SO 112 0 min 0 UV-I 0 W/m 17,7 km/h (3 Bft)
08.09.2010 00:10 14,7 C 72 % 1005,0 hPa 0,0 mm 4,8 km/h (1 Bft) O-SO 112 0 min 0 UV-I 0 W/m 14,5 km/h (3 Bft)
08.09.2010 00:20 14,7 C 72 % 1005,0 hPa 0,0 mm 4,8 km/h (1 Bft) O-SO 112 0 min 0 UV-I 0 W/m 17,7 km/h (3 Bft)
08.09.2010 00:30 14,6 C 72 % 1004,9 hPa 0,0 mm 3,2 km/h (1 Bft) O-SO 112 0 min 0 UV-I 0 W/m 11,3 km/h (2 Bft)
08.09.2010 00:40 14,5 C 73 % 1004,9 hPa 0,0 mm 3,2 km/h (1 Bft) O 90 0 min 0 UV-I 0 W/m 11,3 km/h (2 Bft)
08.09.2010 00:50 14,4 C 73 % 1005,0 hPa 0,0 mm 3,2 km/h (1 Bft) O-SO 112 0 min 0 UV-I 0 W/m 14,5 km/h (3 Bft)
08.09.2010 01:00 14,4 C 72 % 1005,3 hPa 0,0 mm 3,2 km/h (1 Bft) O-SO 112 0 min 0 UV-I 0 W/m 14,5 km/h (3 Bft)
08.09.2010 01:10 14,6 C 72 % 1005,4 hPa 0,0 mm 3,2 km/h (1 Bft) O-SO 112 0 min 0 UV-I 0 W/m 9,7 km/h (2 Bft)
08.09.2010 01:20 14,7 C 72 % 1005,2 hPa 0,0 mm 1,6 km/h (1 Bft) O-SO 112 0 min 0 UV-I 0 W/m 8,0 km/h (2 Bft)
08.09.2010 01:30 14,7 C 72 % 1005,3 hPa 0,0 mm 3,2 km/h (1 Bft) O-SO 112 0 min 0 UV-I 0 W/m 11,3 km/h (2 Bft)
08.09.2010 01:40 14,7 C 71 % 1005,1 hPa 0,0 mm 3,2 km/h (1 Bft) O-SO 112 0 min 0 UV-I 0 W/m 14,5 km/h (3 Bft)
08.09.2010 01:50 14,7 C 71 % 1005,2 hPa 0,0 mm 4,8 km/h (1 Bft) O 90 0 min 0 UV-I 0 W/m 16,1 km/h (3 Bft)
08.09.2010 02:00 14,7 C 72 % 1005,1 hPa 0,0 mm 3,2 km/h (1 Bft) O 90 0 min 0 UV-I 0 W/m 9,7 km/h (2 Bft)
08.09.2010 02:10 14,7 C 74 % 1004,9 hPa 0,0 mm 4,8 km/h (1 Bft) O 90 0 min 0 UV-I 0 W/m 11,3 km/h (2 Bft)
08.09.2010 02:20 14,4 C 76 % 1004,8 hPa 0,0 mm 3,2 km/h (1 Bft) O 90 0 min 0 UV-I 0 W/m 9,7 km/h (2 Bft)
08.09.2010 02:30 14,2 C 76 % 1004,6 hPa 0,0 mm 1,6 km/h (1 Bft) O 90 0 min 0 UV-I 0 W/m 4,8 km/h (1 Bft)
08.09.2010 02:40 14,1 C 76 % 1004,3 hPa 0,0 mm 3,2 km/h (1 Bft) O 90 0 min 0 UV-I 0 W/m 9,7 km/h (2 Bft)
08.09.2010 02:50 14,1 C 76 % 1004,3 hPa 0,0 mm 1,6 km/h (1 Bft) O 90 0 min 0 UV-I 0 W/m 9,7 km/h (2 Bft)
08.09.2010 03:00 14,1 C 75 % 1004,4 hPa 0,0 mm 4,8 km/h (1 Bft) O-SO 112 0 min 0 UV-I 0 W/m 11,3 km/h (2 Bft)
08.09.2010 03:10 14,2 C 75 % 1004,4 hPa 0,0 mm 3,2 km/h (1 Bft) O 90 0 min 0 UV-I 0 W/m 9,7 km/h (2 Bft)
08.09.2010 03:20 14,2 C 74 % 1004,4 hPa 0,0 mm 3,2 km/h (1 Bft) O 90 0 min 0 UV-I 0 W/m 8,0 km/h (2 Bft)
08.09.2010 03:30 14,3 C 73 % 1004,1 hPa 0,0 mm 4,8 km/h (1 Bft) O 90 0 min 0 UV-I 0 W/m 16,1 km/h (3 Bft)
08.09.2010 03:40 14,3 C 73 % 1004,1 hPa 0,0 mm 6,4 km/h (2 Bft) O 90 0 min 0 UV-I 0 W/m 16,1 km/h (3 Bft)
08.09.2010 03:50 14,3 C 73 % 1003,9 hPa 0,0 mm 4,8 km/h (1 Bft) O 90 0 min 0 UV-I 0 W/m 14,5 km/h (3 Bft)
08.09.2010 04:00 14,3 C 73 % 1003,9 hPa 0,0 mm 6,4 km/h (2 Bft) O-SO 112 0 min 0 UV-I 0 W/m 14,5 km/h (3 Bft)
08.09.2010 04:10 14,3 C 73 % 1003,7 hPa 0,0 mm 8,0 km/h (2 Bft) O 90 0 min 0 UV-I 0 W/m 25,7 km/h (4 Bft)
08.09.2010 04:20 14,2 C 74 % 1003,6 hPa 0,0 mm 8,0 km/h (2 Bft) O 90 0 min 0 UV-I 0 W/m 20,9 km/h (4 Bft)
08.09.2010 04:30 14,2 C 75 % 1003,5 hPa 0,0 mm 9,7 km/h (2 Bft) O-SO 112 0 min 0 UV-I 0 W/m 22,5 km/h (4 Bft)
08.09.2010 04:40 14,1 C 76 % 1003,5 hPa 0,0 mm 8,0 km/h (2 Bft) O 90 0 min 0 UV-I 0 W/m 22,5 km/h (4 Bft)
08.09.2010 04:50 14,0 C 77 % 1003,5 hPa 0,0 mm 4,8 km/h (1 Bft) O-SO 112 0 min 0 UV-I 0 W/m 14,5 km/h (3 Bft)
08.09.2010 05:00 13,9 C 79 % 1003,5 hPa 0,0 mm 4,8 km/h (1 Bft) O-SO 112 0 min 0 UV-I 0 W/m 16,1 km/h (3 Bft)
08.09.2010 05:10 13,7 C 82 % 1003,5 hPa 0,0 mm 6,4 km/h (2 Bft) O-SO 112 0 min 0 UV-I 0 W/m 17,7 km/h (3 Bft)
08.09.2010 05:20 13,4 C 83 % 1003,5 hPa 0,3 mm 6,4 km/h (2 Bft) O 90 0 min 0 UV-I 0 W/m 19,3 km/h (3 Bft)
08.09.2010 05:30 13,2 C 84 % 1003,4 hPa 0,0 mm 8,0 km/h (2 Bft) O-SO 112 0 min 0 UV-I 0 W/m 22,5 km/h (4 Bft)
08.09.2010 05:40 13,1 C 84 % 1003,4 hPa 0,0 mm 6,4 km/h (2 Bft) O 90 0 min 0 UV-I 0 W/m 19,3 km/h (3 Bft)
08.09.2010 05:50 12,9 C 85 % 1003,4 hPa 0,0 mm 8,0 km/h (2 Bft) O 90 0 min 0 UV-I 0 W/m 20,9 km/h (4 Bft)
08.09.2010 06:00 12,9 C 85 % 1003,3 hPa 0,0 mm 9,7 km/h (2 Bft) O 90 0 min 0 UV-I 0 W/m 22,5 km/h (4 Bft)
08.09.2010 06:10 12,9 C 85 % 1003,4 hPa 0,0 mm 8,0 km/h (2 Bft) O-SO 112 0 min 0 UV-I 0 W/m 22,5 km/h (4 Bft)
08.09.2010 06:20 13,0 C 84 % 1003,3 hPa 0,0 mm 9,7 km/h (2 Bft) O 90 0 min 0 UV-I 0 W/m 25,7 km/h (4 Bft)
08.09.2010 06:30 13,1 C 84 % 1003,3 hPa 0,0 mm 9,7 km/h (2 Bft) O-SO 112 0 min 0 UV-I 0 W/m 20,9 km/h (4 Bft)
08.09.2010 06:40 13,1 C 83 % 1003,4 hPa 0,0 mm 8,0 km/h (2 Bft) O-SO 112 0 min 0 UV-I 0 W/m 30,6 km/h (5 Bft)
08.09.2010 06:50 13,2 C 83 % 1003,4 hPa 0,0 mm 6,4 km/h (2 Bft) O 90 0 min 0 UV-I 0 W/m 20,9 km/h (4 Bft)
08.09.2010 07:00 13,2 C 83 % 1003,4 hPa 0,0 mm 9,7 km/h (2 Bft) O-SO 112 0 min 0 UV-I 0 W/m 22,5 km/h (4 Bft)
08.09.2010 07:10 13,3 C 83 % 1003,5 hPa 0,0 mm 8,0 km/h (2 Bft) O-SO 112 0 min 0 UV-I 0 W/m 20,9 km/h (4 Bft)
08.09.2010 07:20 13,2 C 84 % 1003,5 hPa 0,0 mm 6,4 km/h (2 Bft) O 90 0 min 0 UV-I 5 W/m 19,3 km/h (3 Bft)
08.09.2010 07:30 13,0 C 85 % 1003,5 hPa 0,0 mm 8,0 km/h (2 Bft) O-SO 112 0 min 0 UV-I 0 W/m 19,3 km/h (3 Bft)
08.09.2010 07:40 13,0 C 85 % 1003,4 hPa 0,0 mm 6,4 km/h (2 Bft) O 90 0 min 0 UV-I 7 W/m 20,9 km/h (4 Bft)
08.09.2010 07:50 13,1 C 84 % 1003,4 hPa 0,0 mm 8,0 km/h (2 Bft) O 90 0 min 0 UV-I 11 W/m 22,5 km/h (4 Bft)
08.09.2010 08:00 13,1 C 84 % 1002,9 hPa 0,0 mm 11,5 km/h (2 Bft) SO 128 0 min 0 UV-I 5 W/m 25,7 km/h (4 Bft)
08.09.2010 08:10 13,2 C 84 % 1003,0 hPa 0,0 mm 10,3 km/h (2 Bft) S-SO 147 0 min 0 UV-I 5 W/m 19,3 km/h (3 Bft)
08.09.2010 08:20 13,2 C 84 % 1003,1 hPa 0,3 mm 11,3 km/h (2 Bft) O-SO 112 0 min 0 UV-I 5 W/m 24,1 km/h (4 Bft)
08.09.2010 08:30 13,2 C 84 % 1003,1 hPa 0,0 mm 8,0 km/h (2 Bft) O-SO 112 0 min 0 UV-I 7 W/m 24,1 km/h (4 Bft)
08.09.2010 08:40 13,2 C 85 % 1003,1 hPa 0,0 mm 6,4 km/h (2 Bft) O-SO 112 0 min 0 UV-I 12 W/m 24,1 km/h (4 Bft)
08.09.2010 08:50 13,1 C 85 % 1003,3 hPa 0,0 mm 9,7 km/h (2 Bft) O-SO 112 0 min 0 UV-I 14 W/m 24,1 km/h (4 Bft)
08.09.2010 09:00 13,0 C 86 % 1003,4 hPa 0,3 mm 9,7 km/h (2 Bft) O-SO 112 0 min 0 UV-I 11 W/m 25,7 km/h (4 Bft)
08.09.2010 09:10 12,9 C 86 % 1003,4 hPa 0,0 mm 6,4 km/h (2 Bft) O 90 0 min 0 UV-I 12 W/m 20,9 km/h (4 Bft)
08.09.2010 09:20 12,8 C 87 % 1003,4 hPa 0,0 mm 8,0 km/h (2 Bft) O 90 0 min 0 UV-I 18 W/m 20,9 km/h (4 Bft)
08.09.2010 09:30 12,8 C 87 % 1003,6 hPa 0,3 mm 6,4 km/h (2 Bft) O-SO 112 0 min 0 UV-I 18 W/m 19,3 km/h (3 Bft)
08.09.2010 09:40 12,8 C 87 % 1003,6 hPa 0,0 mm 4,8 km/h (1 Bft) O 90 0 min 0 UV-I 12 W/m 16,1 km/h (3 Bft)
08.09.2010 09:50 12,8 C 87 % 1003,6 hPa 0,0 mm 8,0 km/h (2 Bft) O-SO 112 0 min 0 UV-I 18 W/m 19,3 km/h (3 Bft)
08.09.2010 10:00 12,9 C 87 % 1003,7 hPa 0,0 mm 8,0 km/h (2 Bft) O 90 0 min 0 UV-I 19 W/m 19,3 km/h (3 Bft)
08.09.2010 10:10 13,0 C 87 % 1003,4 hPa 0,0 mm 6,4 km/h (2 Bft) O-SO 112 0 min 0 UV-I 46 W/m 17,7 km/h (3 Bft)
08.09.2010 10:20 13,2 C 86 % 1003,5 hPa 0,0 mm 8,0 km/h (2 Bft) O 90 0 min 0 UV-I 42 W/m 19,3 km/h (3 Bft)
08.09.2010 10:30 13,3 C 86 % 1003,5 hPa 0,0 mm 9,7 km/h (2 Bft) O-SO 112 0 min 0 UV-I 39 W/m 24,1 km/h (4 Bft)
08.09.2010 10:40 13,4 C 86 % 1003,6 hPa 0,0 mm 9,7 km/h (2 Bft) O-SO 112 0 min 0 UV-I 21 W/m 25,7 km/h (4 Bft)
08.09.2010 10:50 13,4 C 87 % 1003,9 hPa 0,0 mm 6,4 km/h (2 Bft) O 90 0 min 0 UV-I 30 W/m 16,1 km/h (3 Bft)
08.09.2010 11:00 13,5 C 87 % 1003,9 hPa 0,0 mm 4,8 km/h (1 Bft) O 90 0 min 0 UV-I 40 W/m 17,7 km/h (3 Bft)
08.09.2010 11:10 13,6 C 87 % 1003,8 hPa 0,3 mm 6,4 km/h (2 Bft) O 90 0 min 1 UV-I 63 W/m 19,3 km/h (3 Bft)
08.09.2010 11:20 13,8 C 87 % 1003,8 hPa 0,0 mm 6,4 km/h (2 Bft) O 90 0 min 1 UV-I 62 W/m 20,9 km/h (4 Bft)
08.09.2010 11:30 13,8 C 87 % 1004,0 hPa 0,0 mm 4,8 km/h (1 Bft) O-SO 112 0 min 0 UV-I 44 W/m 16,1 km/h (3 Bft)
08.09.2010 11:40 13,8 C 87 % 1004,0 hPa 0,0 mm 4,8 km/h (1 Bft) O-SO 112 0 min 1 UV-I 70 W/m 20,9 km/h (4 Bft)
08.09.2010 11:50 14,1 C 87 % 1004,1 hPa 0,0 mm 4,8 km/h (1 Bft) O-SO 112 0 min 1 UV-I 100 W/m 16,1 km/h (3 Bft)
08.09.2010 12:00 14,4 C 86 % 1004,1 hPa 0,0 mm 4,8 km/h (1 Bft) O-SO 112 0 min 1 UV-I 121 W/m 17,7 km/h (3 Bft)
08.09.2010 12:10 14,8 C 85 % 1004,0 hPa 0,0 mm 4,8 km/h (1 Bft) O-SO 112 0 min 1 UV-I 113 W/m 17,7 km/h (3 Bft)
08.09.2010 12:20 15,1 C 85 % 1004,1 hPa 0,0 mm 4,8 km/h (1 Bft) SO 135 0 min 1 UV-I 111 W/m 14,5 km/h (3 Bft)
08.09.2010 12:30 15,1 C 84 % 1004,1 hPa 0,0 mm 4,8 km/h (1 Bft) O 90 0 min 1 UV-I 107 W/m 16,1 km/h (3 Bft)
08.09.2010 12:40 15,2 C 82 % 1004,2 hPa 0,0 mm 4,8 km/h (1 Bft) O-SO 112 0 min 1 UV-I 91 W/m 17,7 km/h (3 Bft)
08.09.2010 12:50 15,3 C 82 % 1004,4 hPa 0,0 mm 1,6 km/h (1 Bft) O 90 0 min 1 UV-I 102 W/m 6,4 km/h (2 Bft)
08.09.2010 13:00 15,4 C 82 % 1004,3 hPa 0,0 mm 3,2 km/h (1 Bft) O-SO 112 0 min 1 UV-I 69 W/m 12,9 km/h (3 Bft)
08.09.2010 13:10 15,4 C 82 % 1004,3 hPa 0,0 mm 3,2 km/h (1 Bft) O-SO 112 0 min 1 UV-I 67 W/m 16,1 km/h (3 Bft)
08.09.2010 13:20 15,4 C 82 % 1004,5 hPa 0,0 mm 3,2 km/h (1 Bft) O 90 0 min 1 UV-I 65 W/m 14,5 km/h (3 Bft)
08.09.2010 13:30 15,4 C 82 % 1004,5 hPa 0,0 mm 3,2 km/h (1 Bft) O-SO 112 0 min 1 UV-I 62 W/m 11,3 km/h (2 Bft)
08.09.2010 13:40 15,5 C 82 % 1004,5 hPa 0,0 mm 3,2 km/h (1 Bft) O-SO 112 0 min 1 UV-I 63 W/m 11,3 km/h (2 Bft)
08.09.2010 13:50 15,6 C 81 % 1004,8 hPa 0,0 mm 3,2 km/h (1 Bft) SO 135 0 min 1 UV-I 67 W/m 16,1 km/h (3 Bft)
08.09.2010 14:00 15,7 C 81 % 1004,8 hPa 0,0 mm 1,6 km/h (1 Bft) O 90 0 min 0 UV-I 40 W/m 9,7 km/h (2 Bft)
08.09.2010 14:10 15,7 C 82 % 1004,9 hPa 0,3 mm 0,0 km/h (0 Bft) SO 135 0 min 0 UV-I 32 W/m 6,4 km/h (2 Bft)
08.09.2010 14:20 15,6 C 85 % 1004,7 hPa 0,3 mm 0,0 km/h (0 Bft) O-SO 112 0 min 0 UV-I 35 W/m 8,0 km/h (2 Bft)
08.09.2010 14:30 15,3 C 86 % 1004,7 hPa 0,0 mm 1,6 km/h (1 Bft) O-SO 112 0 min 0 UV-I 35 W/m 6,4 km/h (2 Bft)
08.09.2010 14:40 15,2 C 87 % 1004,6 hPa 0,0 mm 1,6 km/h (1 Bft) S-SO 157 0 min 0 UV-I 25 W/m 6,4 km/h (2 Bft)
08.09.2010 14:50 15,1 C 88 % 1004,6 hPa 0,0 mm 0,0 km/h (0 Bft) N 0 0 min 0 UV-I 28 W/m 0,0 km/h (0 Bft)
08.09.2010 15:00 15,1 C 88 % 1004,6 hPa 0,0 mm 1,6 km/h (1 Bft) O 90 0 min 0 UV-I 26 W/m 6,4 km/h (2 Bft)
08.09.2010 15:10 15,1 C 89 % 1004,8 hPa 0,0 mm 1,6 km/h (1 Bft) O-SO 112 0 min 0 UV-I 16 W/m 4,8 km/h (1 Bft)
08.09.2010 15:20 15,1 C 89 % 1004,9 hPa 0,3 mm 0,0 km/h (0 Bft) O 90 0 min 0 UV-I 32 W/m 4,8 km/h (1 Bft)
08.09.2010 15:30 15,1 C 90 % 1004,9 hPa 0,3 mm 0,0 km/h (0 Bft) SO 135 0 min 0 UV-I 39 W/m 3,2 km/h (1 Bft)
08.09.2010 15:40 15,1 C 90 % 1005,1 hPa 0,0 mm 0,0 km/h (0 Bft) N 0 0 min 0 UV-I 26 W/m 0,0 km/h (0 Bft)
08.09.2010 15:50 15,1 C 90 % 1005,1 hPa 0,3 mm 0,0 km/h (0 Bft) W-SW 247 0 min 0 UV-I 28 W/m 1,6 km/h (1 Bft)
08.09.2010 16:00 15,1 C 91 % 1005,1 hPa 0,3 mm 0,0 km/h (0 Bft) W-SW 246 0 min 0 UV-I 46 W/m 0,0 km/h (0 Bft)
08.09.2010 16:10 15,2 C 91 % 1005,2 hPa 0,0 mm 0,2 km/h (0 Bft) W-SW 246 0 min 0 UV-I 42 W/m 3,2 km/h (1 Bft)
08.09.2010 16:20 15,2 C 91 % 1005,2 hPa 0,3 mm 0,4 km/h (0 Bft) W-SW 243 0 min 0 UV-I 51 W/m 3,2 km/h (1 Bft)
08.09.2010 16:30 15,1 C 91 % 1005,1 hPa 0,0 mm 1,5 km/h (1 Bft) O-SO 103 0 min 0 UV-I 52 W/m 8,0 km/h (2 Bft)
08.09.2010 16:40 15,1 C 92 % 1005,1 hPa 0,0 mm 1,2 km/h (1 Bft) SO 141 0 min 0 UV-I 41 W/m 6,4 km/h (2 Bft)
08.09.2010 16:50 15,1 C 92 % 1005,1 hPa 0,0 mm 0,4 km/h (0 Bft) O 101 0 min 0 UV-I 30 W/m 4,8 km/h (1 Bft)
08.09.2010 17:00 15,1 C 92 % 1005,2 hPa 0,0 mm 0,5 km/h (0 Bft) O 101 0 min 0 UV-I 32 W/m 4,8 km/h (1 Bft)
08.09.2010 17:10 15,1 C 92 % 1005,3 hPa 0,0 mm 1,3 km/h (1 Bft) O 101 0 min 0 UV-I 31 W/m 6,4 km/h (2 Bft)
08.09.2010 17:20 15,1 C 92 % 1005,4 hPa 0,0 mm 0,5 km/h (0 Bft) O-SO 107 0 min 0 UV-I 29 W/m 4,8 km/h (1 Bft)
08.09.2010 17:30 15,1 C 92 % 1005,5 hPa 0,0 mm 0,2 km/h (0 Bft) O-SO 108 0 min 0 UV-I 24 W/m 3,2 km/h (1 Bft)
08.09.2010 17:40 15,1 C 92 % 1005,7 hPa 0,0 mm 0,4 km/h (0 Bft) O 96 0 min 0 UV-I 29 W/m 3,2 km/h (1 Bft)
08.09.2010 17:50 15,1 C 92 % 1005,7 hPa 0,0 mm 0,0 km/h (0 Bft) O 97 0 min 0 UV-I 26 W/m 1,6 km/h (1 Bft)
08.09.2010 18:00 15,3 C 92 % 1005,7 hPa 0,0 mm 0,0 km/h (0 Bft) O 96 0 min 0 UV-I 29 W/m 1,6 km/h (1 Bft)
08.09.2010 18:10 15,3 C 92 % 1005,6 hPa 0,0 mm 0,3 km/h (0 Bft) O 97 0 min 0 UV-I 27 W/m 4,8 km/h (1 Bft)
08.09.2010 18:20 15,2 C 92 % 1005,5 hPa 0,0 mm 1,8 km/h (1 Bft) O 98 0 min 0 UV-I 28 W/m 8,0 km/h (2 Bft)
08.09.2010 18:30 15,1 C 92 % 1005,5 hPa 0,0 mm 1,0 km/h (0 Bft) O-SO 102 0 min 0 UV-I 23 W/m 8,0 km/h (2 Bft)
08.09.2010 18:40 15,1 C 92 % 1005,6 hPa 0,0 mm 1,3 km/h (1 Bft) O-SO 122 0 min 0 UV-I 27 W/m 6,4 km/h (2 Bft)
08.09.2010 18:50 15,1 C 92 % 1005,6 hPa 0,3 mm 2,4 km/h (1 Bft) O 95 0 min 0 UV-I 29 W/m 8,0 km/h (2 Bft)
08.09.2010 19:00 15,1 C 92 % 1005,3 hPa 0,0 mm 2,3 km/h (1 Bft) O-SO 112 0 min 0 UV-I 22 W/m 6,4 km/h (2 Bft)
08.09.2010 19:10 15,1 C 92 % 1005,3 hPa 0,0 mm 1,7 km/h (1 Bft) O-SO 106 0 min 0 UV-I 15 W/m 6,4 km/h (2 Bft)
08.09.2010 19:20 15,1 C 92 % 1005,3 hPa 0,0 mm 2,3 km/h (1 Bft) O 99 0 min 0 UV-I 10 W/m 8,0 km/h (2 Bft)
08.09.2010 19:30 15,1 C 92 % 1005,5 hPa 0,0 mm 1,8 km/h (1 Bft) O-SO 111 0 min 0 UV-I 4 W/m 8,0 km/h (2 Bft)
08.09.2010 19:40 15,0 C 92 % 1005,4 hPa 0,0 mm 1,2 km/h (1 Bft) O 99 0 min 0 UV-I 0 W/m 6,4 km/h (2 Bft)
08.09.2010 19:50 14,9 C 92 % 1005,4 hPa 0,0 mm 1,9 km/h (1 Bft) O-SO 107 0 min 0 UV-I 0 W/m 8,0 km/h (2 Bft)
08.09.2010 20:00 14,8 C 92 % 1005,1 hPa 0,3 mm 1,1 km/h (1 Bft) O-SO 112 0 min 0 UV-I 0 W/m 6,4 km/h (2 Bft)
08.09.2010 20:10 14,7 C 92 % 1005,4 hPa 0,0 mm 1,6 km/h (1 Bft) O-SO 111 0 min 0 UV-I 0 W/m 6,4 km/h (2 Bft)
08.09.2010 20:20 14,7 C 92 % 1005,5 hPa 0,0 mm 2,1 km/h (1 Bft) O-SO 115 0 min 0 UV-I 0 W/m 6,4 km/h (2 Bft)
08.09.2010 20:30 14,6 C 92 % 1005,6 hPa 0,0 mm 2,3 km/h (1 Bft) O 98 0 min 0 UV-I 0 W/m 9,7 km/h (2 Bft)
08.09.2010 20:40 14,6 C 92 % 1005,6 hPa 0,0 mm 2,0 km/h (1 Bft) O-SO 115 0 min 0 UV-I 0 W/m 8,0 km/h (2 Bft)
08.09.2010 20:50 14,6 C 92 % 1006,0 hPa 0,0 mm 2,7 km/h (1 Bft) O-SO 117 0 min 0 UV-I 0 W/m 8,0 km/h (2 Bft)
08.09.2010 21:00 14,6 C 92 % 1006,0 hPa 0,0 mm 2,6 km/h (1 Bft) O-SO 119 0 min 0 UV-I 0 W/m 11,3 km/h (2 Bft)
08.09.2010 21:10 14,6 C 92 % 1006,2 hPa 0,0 mm 2,3 km/h (1 Bft) O-SO 104 0 min 0 UV-I 0 W/m 11,3 km/h (2 Bft)
08.09.2010 21:20 14,6 C 92 % 1006,3 hPa 0,0 mm 0,5 km/h (0 Bft) S-SO 150 0 min 0 UV-I 0 W/m 6,4 km/h (2 Bft)
08.09.2010 21:30 14,6 C 92 % 1006,5 hPa 0,0 mm 1,2 km/h (1 Bft) O-SO 116 0 min 0 UV-I 0 W/m 9,7 km/h (2 Bft)
08.09.2010 21:40 14,6 C 92 % 1006,5 hPa 0,0 mm 1,5 km/h (1 Bft) O 95 0 min 0 UV-I 0 W/m 8,0 km/h (2 Bft)
08.09.2010 21:50 14,6 C 92 % 1006,3 hPa 0,0 mm 1,3 km/h (1 Bft) O-SO 113 0 min 0 UV-I 0 W/m 8,0 km/h (2 Bft)
08.09.2010 22:00 14,5 C 92 % 1006,3 hPa 0,0 mm 1,4 km/h (1 Bft) O-SO 106 0 min 0 UV-I 0 W/m 8,0 km/h (2 Bft)
08.09.2010 22:10 14,4 C 92 % 1006,4 hPa 0,0 mm 0,6 km/h (0 Bft) O-SO 106 0 min 0 UV-I 0 W/m 4,8 km/h (1 Bft)
08.09.2010 22:20 14,2 C 92 % 1006,4 hPa 0,0 mm 0,3 km/h (0 Bft) O-SO 106 0 min 0 UV-I 0 W/m 3,2 km/h (1 Bft)
08.09.2010 22:30 14,1 C 92 % 1006,5 hPa 0,0 mm 0,1 km/h (0 Bft) O-SO 106 0 min 0 UV-I 0 W/m 1,6 km/h (1 Bft)
08.09.2010 22:40 13,9 C 92 % 1006,4 hPa 0,0 mm 0,5 km/h (0 Bft) O-SO 106 0 min 0 UV-I 0 W/m 4,8 km/h (1 Bft)
08.09.2010 22:50 13,9 C 92 % 1006,4 hPa 0,0 mm 1,6 km/h (1 Bft) O-SO 112 0 min 0 UV-I 0 W/m 4,8 km/h (1 Bft)
08.09.2010 23:00 13,8 C 92 % 1006,4 hPa 0,0 mm 1,6 km/h (1 Bft) O 90 0 min 0 UV-I 0 W/m 6,4 km/h (2 Bft)
08.09.2010 23:10 13,8 C 92 % 1006,4 hPa 0,0 mm 0,0 km/h (0 Bft) O 90 0 min 0 UV-I 0 W/m 4,8 km/h (1 Bft)
08.09.2010 23:20 13,7 C 92 % 1006,3 hPa 0,0 mm 1,6 km/h (1 Bft) O-SO 112 0 min 0 UV-I 0 W/m 8,0 km/h (2 Bft)
08.09.2010 23:30 13,7 C 92 % 1006,3 hPa 0,0 mm 1,6 km/h (1 Bft) O-SO 112 0 min 0 UV-I 0 W/m 8,0 km/h (2 Bft)
08.09.2010 23:40 13,8 C 92 % 1006,4 hPa 0,0 mm 1,6 km/h (1 Bft) O-SO 112 0 min 0 UV-I 0 W/m 8,0 km/h (2 Bft)
08.09.2010 23:50 13,8 C 92 % 1006,5 hPa 0,0 mm 1,6 km/h (1 Bft) O-SO 112 0 min 0 UV-I 0 W/m 8,0 km/h (2 Bft)
_ Min-Zeit 09:10 01:40 08:00 - 14:10 - - - - - 14:50
Minimum _ 12,8 C 71 % 1002,9 hPa - 0,0 km/h (0 Bft) - - - - - 0,0 km/h (0 Bft)
_ Max-Zeit 14:00 16:40 21:30 05:20 08:00 - - 00:00 12:20 12:00 06:40
Maximum _ 15,7 C 92 % 1006,5 hPa 0,3 mm 11,5 km/h
SO (2 Bft)
- - 0 min 1 UV-I 121 W/m 30,6 km/h
O-SO (5 Bft)
Durchschnitt _ 14,3 C 85 % 1004,6 hPa #3,6 mm 3,9 km/h (1 Bft) O-SO - #0 min. 1 UV-I 38 W/m 12,7 km/h (3 Bft)